Time;durP1;ratioP1;P1;durP2;ratioP2;P2;SDS_P1;SDS_P2;PMS_P1;PMS_P2;Temp;Humidity;BMP_temperature;BMP_pressure;BME280_temperature;BME280_humidity;BME280_pressure;Samples;Min_cycle;Max_cycle;Signal;HPM_P1;HPM_P2
2022/09/12 00:02:24;;;;;;;3.13;2.88;;;12.00;99.90;;;;;;5045630;28;20093;-51
2022/09/12 00:04:50;;;;;;;2.97;2.78;;;12.00;99.90;;;;;;5047867;28;20541;-50
2022/09/12 00:07:16;;;;;;;5.05;2.80;;;12.00;99.90;;;;;;5044405;28;20471;-53
2022/09/12 00:09:41;;;;;;;2.72;2.53;;;11.90;99.90;;;;;;5035989;28;20033;-51
2022/09/12 00:12:07;;;;;;;3.10;2.80;;;11.90;99.90;;;;;;5040928;28;20491;-54
2022/09/12 00:14:33;;;;;;;3.13;2.75;;;11.80;99.90;;;;;;5037539;28;20127;-52
2022/09/12 00:16:59;;;;;;;3.75;3.45;;;11.80;99.90;;;;;;5045376;28;20036;-55
2022/09/12 00:19:26;;;;;;;4.32;3.22;;;11.80;99.90;;;;;;5040566;28;20056;-52
2022/09/12 00:21:52;;;;;;;3.15;2.95;;;11.80;99.90;;;;;;5040230;28;20112;-56
2022/09/12 00:24:17;;;;;;;3.20;2.90;;;11.80;99.90;;;;;;5022990;28;20502;-53
2022/09/12 00:26:43;;;;;;;3.33;3.00;;;11.70;99.90;;;;;;5040706;28;20194;-54
2022/09/12 00:29:18;;;;;;;13.00;3.33;;;11.70;99.90;;;;;;5018337;28;20061;-54
2022/09/12 00:31:43;;;;;;;3.67;3.20;;;11.70;99.90;;;;;;5036348;28;20104;-53
2022/09/12 00:34:09;;;;;;;3.17;2.88;;;11.70;99.90;;;;;;5039552;28;20153;-51
2022/09/12 00:36:35;;;;;;;2.47;2.28;;;11.60;99.90;;;;;;5040808;28;20037;-53
2022/09/12 00:39:02;;;;;;;3.90;2.75;;;11.60;99.90;;;;;;5040195;28;20029;-54
2022/09/12 00:41:31;;;;;;;2.95;2.75;;;11.60;99.90;;;;;;5022474;28;20048;-51
2022/09/12 00:44:02;;;;;;;2.80;2.53;;;11.60;99.90;;;;;;5041998;28;20025;-55
2022/09/12 00:46:49;;;;;;;2.67;2.47;;;11.60;99.90;;;;;;5045131;28;20040;-51
2022/09/12 00:49:26;;;;;;;3.17;2.60;;;11.50;99.90;;;;;;5036458;28;20193;-53
2022/09/12 00:51:57;;;;;;;3.55;2.80;;;11.50;99.90;;;;;;5048343;28;20367;-55
2022/09/12 00:54:28;;;;;;;3.03;2.72;;;11.50;99.90;;;;;;5040511;28;20037;-55
2022/09/12 00:56:57;;;;;;;2.97;2.78;;;11.40;99.90;;;;;;5041196;28;20017;-54
2022/09/12 00:59:31;;;;;;;3.35;3.05;;;11.40;99.90;;;;;;5043258;28;20494;-57
2022/09/12 01:01:56;;;;;;;4.97;3.15;;;11.40;99.90;;;;;;5018393;28;20030;-54
2022/09/12 01:04:25;;;;;;;3.90;3.10;;;11.40;99.90;;;;;;5044689;28;20056;-56
2022/09/12 01:06:51;;;;;;;3.28;2.80;;;11.40;99.90;;;;;;5040138;28;20135;-53
2022/09/12 01:09:21;;;;;;;3.22;2.92;;;11.30;99.90;;;;;;5047678;28;20118;-51
2022/09/12 01:11:49;;;;;;;3.83;2.95;;;11.40;99.90;;;;;;5040480;28;20027;-55
2022/09/12 01:14:16;;;;;;;4.03;3.25;;;11.30;99.90;;;;;;5028435;28;20444;-52
2022/09/12 01:16:44;;;;;;;2.95;2.75;;;11.30;99.90;;;;;;5042337;28;20029;-51
2022/09/12 01:19:30;;;;;;;3.55;3.25;;;11.30;99.90;;;;;;5042078;28;20059;-52
2022/09/12 01:22:17;;;;;;;3.70;3.40;;;11.30;99.90;;;;;;5043045;28;20071;-53
2022/09/12 01:24:58;;;;;;;2.90;2.70;;;11.30;99.90;;;;;;5043931;28;20424;-54
2022/09/12 01:27:34;;;;;;;3.22;2.92;;;11.20;99.90;;;;;;5036262;28;20021;-50
2022/09/12 01:30:18;;;;;;;4.72;2.90;;;11.20;99.90;;;;;;5041642;28;20025;-56
2022/09/12 01:33:09;;;;;;;3.60;3.30;;;11.20;99.90;;;;;;5046247;28;20637;-50
2022/09/12 01:35:40;;;;;;;3.78;3.47;;;11.20;99.90;;;;;;5037910;28;20108;-51
2022/09/12 01:38:16;;;;;;;3.60;3.30;;;11.20;99.90;;;;;;5047701;28;20128;-53
2022/09/12 01:40:55;;;;;;;;;;;11.20;99.90;;;;;;5040115;28;20026;-55
2022/09/12 01:44:00;;;;;;;3.75;3.45;;;11.10;99.90;;;;;;5029135;28;19906;-51
2022/09/12 01:46:42;;;;;;;5.65;3.67;;;11.10;99.90;;;;;;5033970;28;20021;-54
2022/09/12 01:49:23;;;;;;;3.42;3.13;;;11.10;99.90;;;;;;5041992;28;20710;-52
2022/09/12 01:51:52;;;;;;;4.65;4.25;;;11.10;99.90;;;;;;5042779;28;20112;-51
2022/09/12 01:54:45;;;;;;;4.10;3.70;;;11.10;99.90;;;;;;5043189;28;20456;-51
2022/09/12 01:57:19;;;;;;;3.83;3.42;;;11.00;99.90;;;;;;5039812;28;20057;-51
2022/09/12 01:59:48;;;;;;;4.20;3.80;;;11.00;99.90;;;;;;5039765;28;20034;-53
2022/09/12 02:02:51;;;;;;;4.18;3.83;;;11.00;99.90;;;;;;5045786;28;20447;-51
2022/09/12 02:05:19;;;;;;;4.47;4.07;;;11.00;99.90;;;;;;5028625;28;20009;-55
2022/09/12 02:08:02;;;;;;;3.95;3.55;;;10.90;99.90;;;;;;5042136;28;20033;-53
2022/09/12 02:10:33;;;;;;;3.78;3.47;;;11.00;99.90;;;;;;5032681;28;20025;-52
2022/09/12 02:13:23;;;;;;;4.53;4.13;;;10.90;99.90;;;;;;5042028;28;20056;-53
2022/09/12 02:15:58;;;;;;;4.15;3.75;;;10.90;99.90;;;;;;5024601;28;20028;-54
2022/09/12 02:18:28;;;;;;;4.03;3.72;;;10.90;99.90;;;;;;5038744;28;20387;-55
2022/09/12 02:20:56;;;;;;;4.20;3.83;;;10.90;99.90;;;;;;5047037;28;20119;-51
2022/09/12 02:23:27;;;;;;;4.13;3.83;;;10.80;99.90;;;;;;5038967;28;20028;-54
2022/09/12 02:26:02;;;;;;;4.90;4.50;;;10.80;99.90;;;;;;5039456;28;20033;-56
2022/09/12 02:28:34;;;;;;;4.43;4.03;;;10.80;99.90;;;;;;5043234;28;20072;-53
2022/09/12 02:31:12;;;;;;;4.30;3.95;;;10.80;99.90;;;;;;5040213;28;20083;-51
2022/09/12 02:33:48;;;;;;;5.07;4.68;;;10.80;99.90;;;;;;5042991;28;20052;-53
2022/09/12 02:36:21;;;;;;;4.75;4.28;;;10.80;99.90;;;;;;5028324;28;20021;-55
2022/09/12 02:38:47;;;;;;;5.05;4.53;;;10.70;99.90;;;;;;5042093;28;20419;-54
2022/09/12 02:41:16;;;;;;;4.55;4.15;;;10.70;99.90;;;;;;5041517;28;20017;-53
2022/09/12 02:43:42;;;;;;;5.03;4.53;;;10.70;99.90;;;;;;5041065;28;20059;-54
2022/09/12 02:46:14;;;;;;;4.80;4.30;;;10.70;99.90;;;;;;5040969;28;20065;-53
2022/09/12 02:48:42;;;;;;;4.60;4.20;;;10.60;99.90;;;;;;5041711;28;20021;-55
2022/09/12 02:51:08;;;;;;;4.78;4.03;;;10.70;99.90;;;;;;5023121;28;20017;-54
2022/09/12 02:53:35;;;;;;;4.90;4.50;;;10.60;99.90;;;;;;5042014;28;20380;-52
2022/09/12 02:56:01;;;;;;;5.57;5.15;;;10.60;99.90;;;;;;5041618;28;20028;-53
2022/09/12 02:58:30;;;;;;;5.38;4.88;;;10.60;99.90;;;;;;5041588;28;20573;-55
2022/09/12 03:01:30;;;;;;;5.53;5.03;;;10.60;99.90;;;;;;5039607;28;20021;-54
2022/09/12 03:04:16;;;;;;;4.75;4.35;;;10.50;99.90;;;;;;5017548;28;20072;-53
2022/09/12 03:07:11;;;;;;;5.00;4.50;;;10.50;99.90;;;;;;5044383;28;20044;-51
2022/09/12 03:10:00;;;;;;;5.07;4.68;;;10.50;99.90;;;;;;5036480;28;20679;-51
2022/09/12 03:12:44;;;;;;;5.30;4.80;;;10.50;99.90;;;;;;5028496;28;20399;-51
2022/09/12 03:15:13;;;;;;;4.90;4.50;;;10.50;99.90;;;;;;5040229;28;20483;-54
2022/09/12 03:17:38;;;;;;;5.75;5.25;;;10.50;99.90;;;;;;5040986;28;20557;-53
2022/09/12 03:20:30;;;;;;;5.40;4.90;;;10.50;99.90;;;;;;5041032;28;20025;-54
2022/09/12 03:23:04;;;;;;;6.13;5.07;;;10.50;99.90;;;;;;5040344;28;20024;-53
2022/09/12 03:25:35;;;;;;;5.10;4.60;;;10.50;99.90;;;;;;5037742;28;20025;-54
2022/09/12 03:28:18;;;;;;;5.68;5.10;;;10.50;99.90;;;;;;5044140;28;20502;-52
2022/09/12 03:30:47;;;;;;;5.65;5.15;;;10.50;99.90;;;;;;5037760;28;20034;-51
2022/09/12 03:33:15;;;;;;;5.38;4.88;;;10.40;99.90;;;;;;5044805;28;20091;-53
2022/09/12 03:35:41;;;;;;;6.20;4.68;;;10.40;99.90;;;;;;5037587;28;20024;-55
2022/09/12 03:38:07;;;;;;;6.30;5.70;;;10.40;99.90;;;;;;5045819;28;20041;-51
2022/09/12 03:40:34;;;;;;;6.03;5.43;;;10.40;99.90;;;;;;5042612;28;20026;-52
2022/09/12 03:43:00;;;;;;;5.88;5.28;;;10.40;99.90;;;;;;5039900;28;20025;-51
2022/09/12 03:45:25;;;;;;;6.03;5.53;;;10.40;99.90;;;;;;5042680;28;20385;-56
2022/09/12 03:47:51;;;;;;;5.90;5.18;;;10.40;99.90;;;;;;5037951;28;20017;-51
2022/09/12 03:50:17;;;;;;;5.47;4.97;;;10.40;99.90;;;;;;5044645;28;20022;-56
2022/09/12 03:52:42;;;;;;;5.13;4.63;;;10.30;99.90;;;;;;5037322;28;20029;-55
2022/09/12 03:55:08;;;;;;;5.03;4.63;;;10.30;99.90;;;;;;5045629;28;20047;-52
2022/09/12 03:57:34;;;;;;;5.60;5.15;;;10.30;99.90;;;;;;5037282;28;20017;-53
2022/09/12 04:00:00;;;;;;;5.65;5.15;;;10.30;99.90;;;;;;5038968;28;20029;-53
2022/09/12 04:02:27;;;;;;;7.30;5.57;;;10.30;99.90;;;;;;5042337;28;20021;-52
2022/09/12 04:04:52;;;;;;;5.93;5.10;;;10.30;99.90;;;;;;5037950;28;20021;-53
2022/09/12 04:07:18;;;;;;;5.85;5.28;;;10.30;99.90;;;;;;5043660;28;20518;-51
2022/09/12 04:09:44;;;;;;;5.28;4.78;;;10.20;99.90;;;;;;5039897;28;20467;-51
2022/09/12 04:12:10;;;;;;;5.88;5.30;;;10.20;99.90;;;;;;5040016;28;20023;-54
2022/09/12 04:14:36;;;;;;;6.10;5.47;;;10.20;99.90;;;;;;5031895;28;20025;-50
2022/09/12 04:17:01;;;;;;;5.57;5.07;;;10.20;99.90;;;;;;5039074;28;20034;-53
2022/09/12 04:19:27;;;;;;;6.38;5.43;;;10.20;99.90;;;;;;5044462;28;20538;-50
2022/09/12 04:21:52;;;;;;;5.22;4.70;;;10.10;99.90;;;;;;5044056;28;20020;-52
2022/09/12 04:24:18;;;;;;;5.20;4.70;;;10.10;99.90;;;;;;5044575;28;20399;-51
2022/09/12 04:26:44;;;;;;;5.90;5.40;;;10.10;99.90;;;;;;5043118;28;20048;-50
2022/09/12 04:29:11;;;;;;;5.68;4.93;;;10.10;99.90;;;;;;5043710;28;20038;-54
2022/09/12 04:31:36;;;;;;;5.90;5.40;;;10.10;99.90;;;;;;5043996;28;20571;-51
2022/09/12 04:34:02;;;;;;;5.90;5.30;;;10.10;99.90;;;;;;5043137;28;20025;-52
2022/09/12 04:36:28;;;;;;;5.80;5.30;;;10.10;99.90;;;;;;5043855;28;20040;-53
2022/09/12 04:38:54;;;;;;;5.50;5.00;;;10.10;99.90;;;;;;5043755;28;20446;-54
2022/09/12 04:41:26;;;;;;;6.53;5.93;;;10.10;99.90;;;;;;5043954;28;20025;-53
2022/09/12 04:44:02;;;;;;;6.22;5.55;;;10.10;99.90;;;;;;5042133;28;20021;-52
2022/09/12 04:46:33;;;;;;;5.85;5.35;;;10.10;99.90;;;;;;5044331;28;20519;-52
2022/09/12 04:48:59;;;;;;;6.65;6.05;;;10.10;99.90;;;;;;5025196;28;20495;-51
2022/09/12 04:51:28;;;;;;;6.35;5.75;;;10.10;99.90;;;;;;5044014;28;20032;-52
2022/09/12 04:53:57;;;;;;;5.97;5.43;;;10.10;99.90;;;;;;5043966;28;20029;-54
2022/09/12 04:56:24;;;;;;;6.85;6.15;;;10.10;99.90;;;;;;5044003;28;20041;-53
2022/09/12 04:58:49;;;;;;;7.05;6.45;;;10.10;99.90;;;;;;5043489;28;20033;-50
2022/09/12 05:01:18;;;;;;;7.60;6.80;;;10.20;99.90;;;;;;5041889;28;20490;-53
2022/09/12 05:03:45;;;;;;;8.05;7.30;;;10.20;99.90;;;;;;5043935;28;20491;-50
2022/09/12 05:06:15;;;;;;;7.93;7.13;;;10.30;99.90;;;;;;5042159;28;20048;-54
2022/09/12 05:08:41;;;;;;;8.10;7.35;;;10.40;99.90;;;;;;5043718;28;20025;-54
2022/09/12 05:11:12;;;;;;;8.35;7.50;;;10.40;99.90;;;;;;5041162;28;20017;-52
2022/09/12 05:13:39;;;;;;;7.45;6.75;;;10.40;99.90;;;;;;5044534;28;20044;-52
2022/09/12 05:16:06;;;;;;;7.70;7.00;;;10.40;99.90;;;;;;5041346;28;20483;-52
2022/09/12 05:18:33;;;;;;;7.75;6.95;;;10.30;99.90;;;;;;5040043;28;20045;-54
2022/09/12 05:21:00;;;;;;;7.13;6.43;;;10.30;99.90;;;;;;5049534;28;20136;-50
2022/09/12 05:23:26;;;;;;;6.88;6.28;;;10.30;99.90;;;;;;5046037;28;20033;-50
2022/09/12 05:25:53;;;;;;;7.93;7.20;;;10.40;99.90;;;;;;5040702;28;20045;-51
2022/09/12 05:28:21;;;;;;;7.50;6.63;;;10.40;99.90;;;;;;5045487;28;20025;-53
2022/09/12 05:30:47;;;;;;;8.63;7.72;;;10.40;99.90;;;;;;5040289;28;20029;-50
2022/09/12 05:33:13;;;;;;;7.80;6.85;;;10.50;99.90;;;;;;5046895;28;20025;-50
2022/09/12 05:35:39;;;;;;;7.35;6.63;;;10.50;99.90;;;;;;5039729;28;20022;-50
2022/09/12 05:38:08;;;;;;;6.88;6.10;;;10.60;99.90;;;;;;5047888;28;20036;-54
2022/09/12 05:40:34;;;;;;;7.10;6.20;;;10.60;99.90;;;;;;5039761;28;20025;-54
2022/09/12 05:43:00;;;;;;;7.70;6.90;;;10.60;99.90;;;;;;5040871;28;20032;-52
2022/09/12 05:45:25;;;;;;;7.10;6.15;;;10.70;99.90;;;;;;5044585;28;20029;-54
2022/09/12 05:47:53;;;;;;;8.05;7.03;;;10.70;99.90;;;;;;5039918;28;20044;-52
2022/09/12 05:50:18;;;;;;;6.80;6.20;;;10.70;99.90;;;;;;5046452;28;20024;-53
2022/09/12 05:52:44;;;;;;;8.38;6.32;;;10.70;99.90;;;;;;5039185;28;20131;-52
2022/09/12 05:55:10;;;;;;;7.88;6.70;;;10.80;99.90;;;;;;5047497;28;20025;-56
2022/09/12 05:57:35;;;;;;;9.38;6.22;;;10.80;99.90;;;;;;5039169;28;20037;-52
2022/09/12 06:00:04;;;;;;;7.47;6.78;;;10.80;99.90;;;;;;5041254;28;20025;-52
2022/09/12 06:02:29;;;;;;;6.80;6.10;;;10.80;99.90;;;;;;5043740;28;20068;-51
2022/09/12 06:04:55;;;;;;;8.23;7.20;;;10.80;99.90;;;;;;5040222;28;20017;-52
2022/09/12 06:07:20;;;;;;;6.90;6.20;;;10.90;99.90;;;;;;5045195;28;20430;-54
2022/09/12 06:09:46;;;;;;;7.50;6.80;;;10.90;99.90;;;;;;5021265;28;20468;-51
2022/09/12 06:12:12;;;;;;;8.40;7.50;;;10.90;99.90;;;;;;5041798;28;20021;-51
2022/09/12 06:14:38;;;;;;;8.93;7.97;;;11.00;99.90;;;;;;5041259;28;20035;-52
2022/09/12 06:17:04;;;;;;;9.25;8.35;;;11.00;99.90;;;;;;5022822;28;20025;-51
2022/09/12 06:19:29;;;;;;;9.25;8.23;;;11.10;99.90;;;;;;5041615;28;20025;-53
2022/09/12 06:21:55;;;;;;;9.35;8.45;;;11.10;99.90;;;;;;5023917;28;20545;-55
2022/09/12 06:24:21;;;;;;;8.50;7.60;;;11.20;99.90;;;;;;5036537;28;20024;-54
2022/09/12 06:26:48;;;;;;;10.60;8.85;;;11.20;99.90;;;;;;5043508;28;20082;-53
2022/09/12 06:29:15;;;;;;;10.82;9.20;;;11.30;99.90;;;;;;5035984;28;20075;-51
2022/09/12 06:31:42;;;;;;;10.32;8.93;;;11.30;99.90;;;;;;5038182;28;20051;-51
2022/09/12 06:34:10;;;;;;;11.35;9.98;;;11.30;99.90;;;;;;5020569;28;20075;-55
2022/09/12 06:36:45;;;;;;;12.13;10.90;;;11.40;99.90;;;;;;5042309;28;20029;-53
2022/09/12 06:39:13;;;;;;;11.50;9.60;;;11.50;99.90;;;;;;5039392;22;20133;-49
2022/09/12 06:41:39;;;;;;;12.90;11.27;;;11.60;99.90;;;;;;4986333;28;20048;-48
2022/09/12 06:44:05;;;;;;;13.43;12.02;;;11.60;99.90;;;;;;5001608;28;20461;-48
2022/09/12 06:46:31;;;;;;;12.43;10.98;;;11.70;99.90;;;;;;5001959;28;20018;-51
2022/09/12 06:48:59;;;;;;;13.35;10.95;;;11.80;99.90;;;;;;5006565;28;20054;-48
2022/09/12 06:51:26;;;;;;;13.68;12.27;;;11.90;99.90;;;;;;5009894;28;20068;-49
2022/09/12 06:53:54;;;;;;;13.73;11.55;;;12.00;99.90;;;;;;5005571;28;20026;-49
2022/09/12 06:56:23;;;;;;;14.05;10.82;;;12.00;99.90;;;;;;5009500;28;20341;-51
2022/09/12 06:58:50;;;;;;;12.88;11.23;;;12.10;99.90;;;;;;4987564;28;20029;-49
2022/09/12 07:01:17;;;;;;;11.40;10.18;;;12.20;99.90;;;;;;5000451;28;20084;-47
2022/09/12 07:03:47;;;;;;;11.85;10.63;;;12.30;99.90;;;;;;5005626;28;20072;-49
2022/09/12 07:06:15;;;;;;;14.20;11.45;;;12.40;99.90;;;;;;4987443;28;20025;-51
2022/09/12 07:08:41;;;;;;;14.50;11.35;;;12.60;99.90;;;;;;4992095;28;20024;-47
2022/09/12 07:11:16;;;;;;;14.20;12.27;;;12.70;99.90;;;;;;5003601;28;20341;-51
2022/09/12 07:13:43;;;;;;;14.07;12.18;;;12.80;99.90;;;;;;5010028;28;20018;-47
2022/09/12 07:16:09;;;;;;;15.30;12.50;;;13.00;99.90;;;;;;5001914;28;20034;-47
2022/09/12 07:18:39;;;;;;;13.48;12.05;;;13.20;99.90;;;;;;5009097;28;20058;-48
2022/09/12 07:21:11;;;;;;;13.43;12.13;;;13.40;99.90;;;;;;5007376;28;20092;-49
2022/09/12 07:23:37;;;;;;;12.60;11.30;;;13.60;99.90;;;;;;5007899;28;20025;-49
2022/09/12 07:26:03;;;;;;;12.40;11.10;;;13.80;99.90;;;;;;5007728;28;20045;-48
2022/09/12 07:28:31;;;;;;;12.80;11.25;;;13.90;99.90;;;;;;5005676;28;20022;-51
2022/09/12 07:30:57;;;;;;;13.00;11.23;;;14.20;99.90;;;;;;5008412;28;20026;-47
2022/09/12 07:33:27;;;;;;;12.23;10.32;;;14.30;99.90;;;;;;5001421;28;20702;-50
2022/09/12 07:35:53;;;;;;;9.88;9.00;;;14.50;99.90;;;;;;4990338;28;20034;-47
2022/09/12 07:38:19;;;;;;;11.85;9.48;;;14.70;99.90;;;;;;5005285;28;20030;-48
2022/09/12 07:40:45;;;;;;;9.05;8.15;;;14.80;99.90;;;;;;5006638;28;20475;-49
2022/09/12 07:43:11;;;;;;;7.65;7.00;;;15.00;99.90;;;;;;5006154;28;20029;-49
2022/09/12 07:45:36;;;;;;;7.15;6.55;;;15.20;99.90;;;;;;4986626;28;20018;-49
2022/09/12 07:48:02;;;;;;;6.70;6.10;;;15.30;99.90;;;;;;5009191;28;20077;-50
2022/09/12 07:50:28;;;;;;;6.47;5.88;;;15.50;99.90;;;;;;4988051;28;20030;-47
2022/09/12 07:52:54;;;;;;;6.90;6.03;;;15.60;99.90;;;;;;4992817;28;20356;-49
2022/09/12 07:55:20;;;;;;;6.28;5.68;;;15.80;99.90;;;;;;5004526;28;20035;-47
2022/09/12 07:57:50;;;;;;;5.72;5.22;;;16.00;99.90;;;;;;5010450;28;20040;-49
2022/09/12 08:00:16;;;;;;;6.30;5.32;;;16.20;99.90;;;;;;4990081;28;20058;-47
2022/09/12 08:02:42;;;;;;;9.93;5.25;;;16.40;99.90;;;;;;4989205;28;20046;-47
2022/09/12 08:05:08;;;;;;;6.10;4.53;;;16.60;99.90;;;;;;5012426;28;20084;-48
2022/09/12 08:07:34;;;;;;;5.68;4.47;;;16.70;99.90;;;;;;5008768;28;20018;-47
2022/09/12 08:10:00;;;;;;;5.15;4.65;;;16.90;99.90;;;;;;5011575;28;20052;-50
2022/09/12 08:12:28;;;;;;;4.95;4.47;;;17.10;99.90;;;;;;5008196;28;20533;-49
2022/09/12 08:14:54;;;;;;;4.53;4.13;;;17.20;99.90;;;;;;5009220;28;20558;-48
2022/09/12 08:17:20;;;;;;;4.55;4.18;;;17.40;99.90;;;;;;4991109;28;20026;-48
2022/09/12 08:19:46;;;;;;;8.30;4.53;;;17.60;99.90;;;;;;5008114;28;20084;-47
2022/09/12 08:22:12;;;;;;;5.63;4.32;;;17.70;99.90;;;;;;5012416;28;20085;-48
2022/09/12 08:24:38;;;;;;;4.40;4.00;;;17.80;99.90;;;;;;5009007;28;20026;-47
2022/09/12 08:27:04;;;;;;;4.63;3.90;;;17.90;99.90;;;;;;4993761;28;20488;-48
2022/09/12 08:29:30;;;;;;;3.97;3.58;;;18.00;99.90;;;;;;5007895;28;20114;-48
2022/09/12 08:31:56;;;;;;;6.35;4.55;;;18.10;99.90;;;;;;5010084;28;20106;-47
2022/09/12 08:34:21;;;;;;;4.53;4.10;;;18.20;99.90;;;;;;4991471;28;20396;-47
2022/09/12 08:36:47;;;;;;;4.95;4.43;;;18.30;99.90;;;;;;5010132;28;20416;-51
2022/09/12 08:39:16;;;;;;;8.68;4.25;;;18.30;99.90;;;;;;4989990;28;20022;-49
2022/09/12 08:41:48;;;;;;;4.72;4.10;;;18.40;99.90;;;;;;5010249;28;20493;-50
2022/09/12 08:44:27;;;;;;;5.05;4.05;;;18.50;99.90;;;;;;5007020;28;20014;-49
2022/09/12 08:47:02;;;;;;;3.85;3.38;;;18.50;99.90;;;;;;5008707;28;20026;-53
2022/09/12 08:49:32;;;;;;;4.10;3.70;;;18.60;99.90;;;;;;5012306;28;20434;-48
2022/09/12 08:52:04;;;;;;;4.55;3.38;;;18.60;99.90;;;;;;5006663;28;20038;-49
2022/09/12 08:54:30;;;;;;;3.58;3.28;;;18.60;99.90;;;;;;4988819;28;20026;-52
2022/09/12 08:57:07;;;;;;;3.25;3.03;;;18.60;99.90;;;;;;5006954;28;20084;-47
2022/09/12 08:59:39;;;;;;;4.10;3.72;;;18.60;99.90;;;;;;5001631;28;20057;-48
2022/09/12 09:02:49;;;;;;;3.53;3.22;;;18.60;99.90;;;;;;4986685;28;20175;-48
2022/09/12 09:05:48;;;;;;;3.22;2.78;;;18.50;99.90;;;;;;4995906;28;20049;-48
2022/09/12 09:08:32;;;;;;;2.72;2.53;;;18.50;99.90;;;;;;5008131;28;20029;-49
2022/09/12 09:10:57;;;;;;;3.50;2.97;;;18.50;99.90;;;;;;4993037;28;20121;-47
2022/09/12 09:16:49;;;;;;;2.28;2.05;;;18.60;99.90;;;;;;5004767;28;20069;-47
2022/09/12 09:19:20;;;;;;;3.85;2.30;;;18.60;99.90;;;;;;4993562;28;20443;-47
2022/09/12 09:22:00;;;;;;;2.28;2.08;;;18.70;99.90;;;;;;5011204;28;20025;-47
2022/09/12 09:24:32;;;;;;;2.30;2.10;;;18.70;99.90;;;;;;4998719;28;20022;-48
2022/09/12 09:27:25;;;;;;;2.95;2.65;;;18.80;99.90;;;;;;5010277;28;20055;-49
2022/09/12 09:29:53;;;;;;;2.25;2.05;;;18.80;99.90;;;;;;5006440;28;20041;-50
2022/09/12 09:32:39;;;;;;;2.78;2.55;;;18.80;99.90;;;;;;5009260;28;20172;-47
2022/09/12 09:35:21;;;;;;;2.25;1.95;;;18.90;99.90;;;;;;4989193;28;20029;-52
2022/09/12 09:38:08;;;;;;;3.35;2.00;;;18.90;99.90;;;;;;5011439;28;20137;-48
2022/09/12 09:41:04;;;;;;;2.35;2.05;;;19.00;99.90;;;;;;5004352;28;20014;-47
2022/09/12 09:43:30;;;;;;;1.90;1.63;;;19.10;99.90;;;;;;4990548;28;20033;-47
2022/09/12 09:45:58;;;;;;;1.80;1.70;;;19.10;99.90;;;;;;5007157;28;20108;-48
2022/09/12 09:48:34;;;;;;;3.58;1.70;;;19.00;99.90;;;;;;5011042;28;20476;-49
2022/09/12 09:51:02;;;;;;;2.42;2.22;;;19.10;99.90;;;;;;5003821;28;20045;-47
2022/09/12 09:53:44;;;;;;;2.05;1.58;;;19.20;99.90;;;;;;5009600;28;20558;-49
2022/09/12 09:56:32;;;;;;;1.88;1.70;;;19.20;99.90;;;;;;4992739;28;20037;-53
2022/09/12 09:59:10;;;;;;;1.83;1.38;;;19.30;99.90;;;;;;4991178;28;20519;-52
2022/09/12 10:01:42;;;;;;;2.35;1.52;;;19.30;99.90;;;;;;5005645;28;20492;-48
2022/09/12 10:04:19;;;;;;;2.35;1.30;;;19.30;99.90;;;;;;5007533;28;20104;-47
2022/09/12 10:06:45;;;;;;;1.45;1.35;;;19.40;99.90;;;;;;5010649;28;20484;-48
2022/09/12 10:09:13;;;;;;;3.00;1.50;;;19.50;99.90;;;;;;5005904;28;20057;-50
2022/09/12 10:11:39;;;;;;;1.75;1.38;;;19.50;99.90;;;;;;5010637;28;20036;-50
2022/09/12 10:14:31;;;;;;;1.83;1.23;;;19.60;99.90;;;;;;5003782;28;20030;-52
2022/09/12 10:16:57;;;;;;;0.90;0.90;;;19.60;99.90;;;;;;5009677;28;20108;-48
2022/09/12 10:19:36;;;;;;;1.45;1.25;;;19.70;99.90;;;;;;5003096;28;20109;-47
2022/09/12 10:22:03;;;;;;;1.30;1.20;;;19.70;99.90;;;;;;5009746;28;20026;-47
2022/09/12 10:24:40;;;;;;;1.08;0.80;;;19.80;99.90;;;;;;5006860;28;20022;-49
2022/09/12 10:27:08;;;;;;;1.17;0.80;;;19.80;99.90;;;;;;5009372;28;20100;-49
2022/09/12 10:29:47;;;;;;;1.38;0.80;;;19.80;99.90;;;;;;5005653;28;20036;-49
2022/09/12 10:32:29;;;;;;;2.45;1.38;;;19.90;99.90;;;;;;5007956;28;20488;-47
2022/09/12 10:35:03;;;;;;;1.27;0.70;;;19.90;99.90;;;;;;5004705;28;20033;-49
2022/09/12 10:37:38;;;;;;;2.25;0.90;;;19.90;99.90;;;;;;4998458;28;20026;-48
2022/09/12 10:40:19;;;;;;;1.00;0.88;;;19.90;99.90;;;;;;4986264;28;20034;-47
2022/09/12 10:42:50;;;;;;;1.40;1.30;;;19.90;99.90;;;;;;5002965;28;20033;-47
2022/09/12 10:45:25;;;;;;;2.30;1.20;;;20.00;99.90;;;;;;5005464;28;20361;-47
2022/09/12 10:47:53;;;;;;;2.22;1.33;;;20.00;99.90;;;;;;5008408;28;20631;-52
2022/09/12 10:50:41;;;;;;;1.70;1.60;;;20.00;99.90;;;;;;5006318;28;20457;-47
2022/09/12 10:53:20;;;;;;;1.20;1.10;;;20.10;99.90;;;;;;4988936;28;20500;-52
2022/09/12 10:56:04;;;;;;;1.00;1.00;;;20.10;99.90;;;;;;5005510;28;20033;-47
2022/09/12 10:58:47;;;;;;;2.20;1.77;;;20.10;99.90;;;;;;4998127;28;20026;-52
2022/09/12 11:01:25;;;;;;;1.75;1.50;;;20.10;99.90;;;;;;5004221;28;20022;-50
2022/09/12 11:04:23;;;;;;;1.58;1.40;;;20.10;99.90;;;;;;5006869;28;20022;-48
2022/09/12 11:06:57;;;;;;;2.53;1.98;;;20.20;99.90;;;;;;5002838;28;20029;-48
2022/09/12 11:10:06;;;;;;;3.55;1.60;;;20.20;99.90;;;;;;5003454;28;20026;-47
2022/09/12 11:12:58;;;;;;;3.72;1.65;;;20.30;99.90;;;;;;4889334;29;20039;-53
2022/09/12 11:15:51;;;;;;;2.88;1.85;;;20.30;99.90;;;;;;4994303;28;20061;-47
2022/09/12 11:18:28;;;;;;;4.65;2.50;;;20.40;99.90;;;;;;5004054;28;20092;-51
2022/09/12 11:21:31;;;;;;;2.08;1.70;;;20.40;99.90;;;;;;5005972;28;20026;-50
2022/09/12 11:24:22;;;;;;;4.10;2.30;;;20.40;99.90;;;;;;5008504;28;20030;-47
2022/09/12 11:27:02;;;;;;;3.38;2.25;;;20.30;99.90;;;;;;4999600;28;20053;-47
2022/09/12 11:29:53;;;;;;;2.67;1.83;;;20.40;99.90;;;;;;4990668;28;20150;-49
2022/09/12 11:32:42;;;;;;;1.95;1.60;;;20.40;99.90;;;;;;4994506;28;20408;-49
2022/09/12 11:35:23;;;;;;;2.97;1.73;;;20.50;99.90;;;;;;4986833;28;20495;-47
2022/09/12 11:37:59;;;;;;;2.15;1.92;;;20.50;99.90;;;;;;5009280;28;20040;-53
2022/09/12 11:40:43;;;;;;;2.63;2.03;;;20.60;99.90;;;;;;5002227;28;20038;-48
2022/09/12 11:43:19;;;;;;;2.38;1.75;;;20.60;99.90;;;;;;5006610;28;20650;-52
2022/09/12 11:45:46;;;;;;;3.00;2.45;;;20.60;99.90;;;;;;5005073;28;20018;-49
2022/09/12 11:48:25;;;;;;;4.32;1.88;;;20.60;99.90;;;;;;5008807;28;20092;-48
2022/09/12 11:50:51;;;;;;;2.13;1.92;;;20.60;99.90;;;;;;5005397;28;20029;-50
2022/09/12 11:53:29;;;;;;;2.40;1.73;;;20.60;99.90;;;;;;5008069;28;20026;-51
2022/09/12 11:56:08;;;;;;;1.40;1.30;;;20.70;99.90;;;;;;5005006;28;20202;-47
2022/09/12 11:58:36;;;;;;;1.85;1.50;;;20.70;99.90;;;;;;5007270;28;20062;-48
2022/09/12 12:01:21;;;;;;;1.83;1.70;;;20.70;99.90;;;;;;4985885;28;20436;-49
2022/09/12 12:03:48;;;;;;;2.70;1.73;;;20.80;99.90;;;;;;5006364;28;20136;-51
2022/09/12 12:06:25;;;;;;;2.95;1.60;;;20.80;99.90;;;;;;4990736;28;20112;-50
2022/09/12 12:08:51;;;;;;;3.28;1.73;;;20.90;99.90;;;;;;5005174;28;20033;-48
2022/09/12 12:11:34;;;;;;;2.53;1.38;;;20.90;99.90;;;;;;5007892;28;20022;-48
2022/09/12 12:14:14;;;;;;;6.80;1.33;;;21.00;99.90;;;;;;5003160;28;20034;-51
2022/09/12 12:16:40;;;;;;;1.65;1.48;;;21.10;99.90;;;;;;4998634;28;20026;-49
2022/09/12 12:19:31;;;;;;;1.52;1.42;;;21.00;99.90;;;;;;5001153;28;20025;-54
2022/09/12 12:22:25;;;;;;;3.10;1.50;;;21.10;99.90;;;;;;4965996;28;20108;-47
2022/09/12 12:25:35;;;;;;;1.88;1.63;;;21.10;99.90;;;;;;5004557;28;20038;-48
2022/09/12 12:28:03;;;;;;;1.50;1.40;;;21.10;99.90;;;;;;5007674;28;20449;-47
2022/09/12 12:30:28;;;;;;;1.83;1.58;;;21.10;99.90;;;;;;5004509;28;20038;-51
2022/09/12 12:33:00;;;;;;;1.30;1.20;;;21.20;99.90;;;;;;5005969;28;20046;-50
2022/09/12 12:35:35;;;;;;;1.60;1.40;;;21.20;99.90;;;;;;5005672;28;20041;-50
2022/09/12 12:38:02;;;;;;;1.20;1.10;;;21.20;99.90;;;;;;5006009;28;20088;-49
2022/09/12 12:40:29;;;;;;;2.47;1.08;;;21.20;99.90;;;;;;5048276;22;20045;-53
2022/09/12 12:42:56;;;;;;;2.17;1.30;;;21.20;99.90;;;;;;5047144;28;20023;-54
2022/09/12 12:45:27;;;;;;;1.45;1.13;;;21.30;99.90;;;;;;5040475;28;20064;-54
2022/09/12 12:47:59;;;;;;;1.63;1.40;;;21.30;99.90;;;;;;5040966;28;20560;-54
2022/09/12 12:50:28;;;;;;;1.05;1.05;;;21.30;99.90;;;;;;5044946;28;20122;-56
2022/09/12 12:53:23;;;;;;;2.00;1.23;;;21.20;99.90;;;;;;5040230;28;20030;-52
2022/09/12 12:55:54;;;;;;;1.77;1.38;;;21.20;99.90;;;;;;5043191;28;20074;-58
2022/09/12 12:58:36;;;;;;;4.13;1.73;;;21.30;99.90;;;;;;5044003;28;20394;-53
2022/09/12 13:01:11;;;;;;;1.13;1.02;;;21.20;99.90;;;;;;5043138;28;20029;-53
2022/09/12 13:03:40;;;;;;;1.53;1.43;;;21.30;99.90;;;;;;5043926;28;20021;-55
2022/09/12 13:06:07;;;;;;;3.10;1.55;;;21.30;99.90;;;;;;5041368;28;20026;-56
2022/09/12 13:08:42;;;;;;;1.50;1.33;;;21.30;99.90;;;;;;5043844;28;20048;-55
2022/09/12 13:11:15;;;;;;;1.30;1.20;;;21.30;99.90;;;;;;5023969;28;20025;-55
2022/09/12 13:13:59;;;;;;;2.58;1.30;;;21.30;99.90;;;;;;5041073;28;20043;-50
2022/09/12 13:16:33;;;;;;;3.17;1.80;;;21.30;99.90;;;;;;5036145;28;20029;-50